Time;durP1;ratioP1;P1;durP2;ratioP2;P2;SDS_P1;SDS_P2;PMS_P1;PMS_P2;Temp;Humidity;BMP_temperature;BMP_pressure;BME280_temperature;BME280_humidity;BME280_pressure;Samples;Min_cycle;Max_cycle;Signal;HPM_P1;HPM_P2
2023/09/21 00:00:30;;;;;;;1.33;1.30;;;;;;;18.69;93.37;94706.19;4378468;32;20209;-64
2023/09/21 00:02:55;;;;;;;6.13;1.53;;;;;;;18.73;92.67;94707.00;4378471;32;20180;-64
2023/09/21 00:05:22;;;;;;;0.50;0.50;;;;;;;18.78;92.88;94694.03;4377406;32;20181;-63
2023/09/21 00:07:49;;;;;;;1.37;1.27;;;;;;;18.67;93.46;94690.41;4380000;32;20197;-63
2023/09/21 00:10:14;;;;;;;0.67;0.67;;;;;;;18.66;93.25;94696.13;4378892;32;20208;-64
2023/09/21 00:12:41;;;;;;;0.80;0.67;;;;;;;18.53;92.75;94685.53;4377793;32;20192;-64
2023/09/21 00:15:08;;;;;;;0.80;0.80;;;;;;;18.71;93.39;94685.84;4364173;32;20200;-64
2023/09/21 00:17:34;;;;;;;0.63;0.63;;;;;;;18.61;93.65;94674.94;4377770;32;20188;-64
2023/09/21 00:20:21;;;;;;;0.20;0.20;;;;;;;18.53;94.04;94674.78;4377806;32;20192;-64
2023/09/21 00:22:47;;;;;;;0.53;0.53;;;;;;;18.59;94.20;94672.63;4377002;32;20215;-63
2023/09/21 00:25:14;;;;;;;0.70;0.70;;;;;;;18.49;93.83;94657.84;4375900;32;20208;-63
2023/09/21 00:27:40;;;;;;;0.80;0.80;;;;;;;18.52;93.95;94659.81;4377889;32;20192;-63
2023/09/21 00:30:05;;;;;;;0.60;0.60;;;;;;;18.58;93.89;94659.50;4378413;32;20210;-63
2023/09/21 00:32:31;;;;;;;0.43;0.43;;;;;;;18.50;93.63;94659.38;4376467;32;20282;-63
2023/09/21 00:34:56;;;;;;;0.87;0.87;;;;;;;18.50;94.14;94669.34;4377760;32;20210;-63
2023/09/21 00:37:23;;;;;;;0.70;0.70;;;;;;;18.39;94.85;94669.19;4375389;32;20251;-63
2023/09/21 00:39:48;;;;;;;6.97;1.13;;;;;;;18.41;95.13;94661.56;4371277;32;20207;-61
2023/09/21 00:42:14;;;;;;;0.40;0.40;;;;;;;18.58;93.39;94654.12;4379427;32;20188;-63
2023/09/21 00:44:40;;;;;;;0.67;0.67;;;;;;;18.52;93.82;94649.06;4377917;32;20197;-63
2023/09/21 00:47:05;;;;;;;0.80;0.80;;;;;;;18.55;93.66;94653.72;4377520;32;20199;-63
2023/09/21 00:49:31;;;;;;;0.67;0.67;;;;;;;18.52;93.98;94650.97;4377265;32;20205;-64
2023/09/21 00:51:57;;;;;;;1.20;0.90;;;;;;;18.31;94.84;94648.72;4377693;32;20192;-63
2023/09/21 00:54:24;;;;;;;0.70;0.70;;;;;;;18.26;94.01;94642.87;4377393;32;20197;-63
2023/09/21 00:56:52;;;;;;;0.63;0.63;;;;;;;18.46;94.41;94644.38;4377148;32;20246;-63
2023/09/21 00:59:19;;;;;;;0.50;0.50;;;;;;;18.47;95.38;94640.53;4379362;32;20210;-63
2023/09/21 01:01:44;;;;;;;0.53;0.53;;;;;;;18.47;94.57;94641.31;4377798;32;20230;-63
2023/09/21 01:04:12;;;;;;;0.60;0.60;;;;;;;18.43;93.56;94634.34;4363980;32;20197;-63
2023/09/21 01:06:39;;;;;;;1.53;1.43;;;;;;;18.53;94.28;94628.34;4363975;32;20241;-63
2023/09/21 01:09:06;;;;;;;0.50;0.50;;;;;;;18.51;93.83;94623.31;4376137;32;20245;-63
2023/09/21 01:11:36;;;;;;;0.80;0.80;;;;;;;18.57;94.20;94626.50;4377082;32;20188;-63
2023/09/21 01:14:02;;;;;;;0.93;0.93;;;;;;;18.42;94.36;94628.19;4377375;32;20223;-63
2023/09/21 01:16:27;;;;;;;0.83;0.83;;;;;;;18.50;93.51;94629.06;4377222;32;20180;-63
2023/09/21 01:18:52;;;;;;;0.57;0.57;;;;;;;18.50;93.54;94623.69;4376060;32;20181;-63
2023/09/21 01:21:25;;;;;;;0.80;0.80;;;;;;;18.19;93.46;94624.75;4378057;32;20184;-63
2023/09/21 01:23:52;;;;;;;1.20;0.90;;;;;;;18.32;94.55;94620.72;4375224;32;20192;-63
2023/09/21 01:26:19;;;;;;;0.40;0.40;;;;;;;18.34;94.87;94618.47;4378722;32;20215;-63
2023/09/21 01:28:47;;;;;;;0.43;0.43;;;;;;;18.44;93.93;94614.41;4376196;32;20188;-63
2023/09/21 01:31:13;;;;;;;0.60;0.60;;;;;;;18.46;93.64;94609.44;4367122;32;20181;-63
2023/09/21 01:33:39;;;;;;;0.60;0.60;;;;;;;18.33;94.10;94606.16;4376052;32;20249;-63
2023/09/21 01:36:08;;;;;;;0.67;0.50;;;;;;;18.33;94.02;94600.78;4375125;32;20247;-63
2023/09/21 01:38:34;;;;;;;0.30;0.30;;;;;;;18.42;93.65;94587.91;4374327;32;20215;-63
2023/09/21 01:41:00;;;;;;;1.00;1.00;;;;;;;18.38;93.41;94592.44;4375138;32;20193;-63
2023/09/21 01:43:25;;;;;;;0.87;0.60;;;;;;;18.41;92.90;94591.72;4373179;32;20248;-63
2023/09/21 01:45:51;;;;;;;1.37;0.70;;;;;;;18.33;93.30;94592.72;4361237;32;20201;-63
2023/09/21 01:48:18;;;;;;;0.60;0.60;;;;;;;18.30;93.71;94582.72;4376459;32;20243;-63
2023/09/21 01:50:51;;;;;;;1.17;1.17;;;;;;;18.31;94.11;94584.25;4360899;32;20189;-63
2023/09/21 01:53:21;;;;;;;0.60;0.60;;;;;;;18.39;93.41;94577.09;4370212;32;20201;-63
2023/09/21 01:55:49;;;;;;;0.70;0.70;;;;;;;18.32;93.70;94576.97;4373465;32;20199;-63
2023/09/21 01:58:16;;;;;;;8.77;1.00;;;;;;;18.40;93.65;94574.06;4375148;32;20235;-63
2023/09/21 02:00:43;;;;;;;1.40;0.73;;;;;;;18.40;94.04;94574.06;4360703;32;20250;-63
2023/09/21 02:03:12;;;;;;;0.60;0.60;;;;;;;18.36;93.70;94567.84;4373057;32;20267;-63
2023/09/21 02:05:38;;;;;;;0.70;0.70;;;;;;;18.40;93.97;94570.59;4360572;32;20297;-63
2023/09/21 02:08:05;;;;;;;0.70;0.70;;;;;;;18.28;93.58;94566.22;4371791;32;20204;-63
2023/09/21 02:10:35;;;;;;;0.77;0.77;;;;;;;18.30;94.68;94565.81;4373161;32;20230;-63
2023/09/21 02:13:02;;;;;;;0.50;0.50;;;;;;;18.35;93.87;94568.22;4374926;32;20180;-63
2023/09/21 02:15:29;;;;;;;0.80;0.80;;;;;;;18.31;94.20;94560.09;4374276;32;20181;-63
2023/09/21 02:17:55;;;;;;;1.10;0.70;;;;;;;18.26;93.43;94557.72;4360127;32;20223;-63
2023/09/21 02:20:24;;;;;;;0.90;0.90;;;;;;;18.28;93.56;94552.00;4361263;32;20193;-62
2023/09/21 02:22:52;;;;;;;2.07;1.00;;;;;;;18.31;93.76;94551.25;4362348;32;20202;-63
2023/09/21 02:25:19;;;;;;;1.57;1.30;;;;;;;18.27;93.75;94553.91;4378409;32;20193;-63
2023/09/21 02:27:48;;;;;;;1.40;1.37;;;;;;;18.27;93.63;94553.91;4376364;32;20192;-63
2023/09/21 02:30:21;;;;;;;0.70;0.70;;;;;;;18.35;93.26;94550.19;4362594;32;20204;-63
2023/09/21 02:32:51;;;;;;;0.77;0.67;;;;;;;18.25;93.71;94550.81;4375556;32;20180;-63
2023/09/21 02:35:27;;;;;;;0.60;0.60;;;;;;;18.29;93.75;94542.81;4376561;32;20188;-63
2023/09/21 02:37:55;;;;;;;0.67;0.67;;;;;;;18.15;93.91;94540.66;4374416;32;20240;-63
2023/09/21 02:40:23;;;;;;;0.23;0.23;;;;;;;18.01;93.92;94543.91;4374651;32;20185;-63
2023/09/21 02:42:51;;;;;;;0.60;0.60;;;;;;;18.19;93.99;94544.19;4378124;32;20199;-63
2023/09/21 02:45:21;;;;;;;1.30;0.60;;;;;;;18.04;93.63;94542.44;4373307;32;20207;-63
2023/09/21 02:47:47;;;;;;;0.70;0.70;;;;;;;18.08;94.72;94543.25;4362663;32;20250;-63
2023/09/21 02:50:15;;;;;;;0.70;0.70;;;;;;;18.07;94.32;94536.34;4375493;32;20193;-63
2023/09/21 02:52:47;;;;;;;0.63;0.30;;;;;;;18.09;93.84;94531.38;4370349;32;20188;-63
2023/09/21 02:55:20;;;;;;;0.20;0.20;;;;;;;18.26;93.69;94530.88;4378179;32;20189;-63
2023/09/21 02:57:47;;;;;;;3.00;1.10;;;;;;;18.07;94.53;94526.38;4376766;32;20203;-63
2023/09/21 03:02:55;;;;;;;0.43;0.43;;;;;;;18.17;94.17;94520.37;4375707;32;20208;-63
2023/09/21 03:05:21;;;;;;;1.03;1.03;;;;;;;18.28;93.98;94525.94;4361817;32;20185;-63
2023/09/21 03:07:48;;;;;;;0.40;0.40;;;;;;;18.36;93.99;94514.13;4377887;32;20200;-63
2023/09/21 03:10:16;;;;;;;0.60;0.60;;;;;;;18.29;93.52;94514.03;4362318;32;20241;-63
2023/09/21 03:12:41;;;;;;;9.43;0.87;;;;;;;18.28;93.40;94509.81;4375496;32;20252;-63
2023/09/21 03:15:13;;;;;;;0.40;0.40;;;;;;;18.27;93.78;94512.84;4377424;32;20238;-63
2023/09/21 03:17:39;;;;;;;0.50;0.50;;;;;;;18.18;93.73;94511.19;4365279;32;20192;-63
2023/09/21 03:20:09;;;;;;;0.37;0.37;;;;;;;18.30;93.74;94510.19;4379021;32;20234;-63
2023/09/21 03:22:35;;;;;;;0.40;0.40;;;;;;;18.32;93.04;94499.88;4364673;32;20227;-63
2023/09/21 03:25:00;;;;;;;0.90;0.90;;;;;;;18.27;92.98;94502.91;4378567;32;20219;-63
2023/09/21 03:27:25;;;;;;;0.90;0.90;;;;;;;18.20;93.22;94500.09;4378398;32;20189;-63
2023/09/21 03:29:51;;;;;;;0.77;0.77;;;;;;;17.98;94.13;94498.22;4378805;32;20193;-63
2023/09/21 03:32:17;;;;;;;0.57;0.57;;;;;;;17.83;94.64;94497.22;4380219;32;20230;-63
2023/09/21 03:34:43;;;;;;;0.80;0.80;;;;;;;17.82;94.70;94498.37;4375680;32;20236;-63
2023/09/21 03:37:09;;;;;;;0.70;0.70;;;;;;;17.99;95.27;94494.41;4378992;32;20340;-63
2023/09/21 03:39:35;;;;;;;0.40;0.40;;;;;;;18.05;94.30;94492.97;4365008;32;20231;-63
2023/09/21 03:42:00;;;;;;;1.30;0.50;;;;;;;17.94;93.23;94492.03;4378592;32;20203;-63
2023/09/21 03:44:25;;;;;;;0.50;0.50;;;;;;;17.87;93.78;94491.94;4378453;32;20214;-63
2023/09/21 03:46:51;;;;;;;0.90;0.90;;;;;;;17.79;93.96;94491.81;4364698;32;20189;-63
2023/09/21 03:49:17;;;;;;;0.80;0.80;;;;;;;17.73;95.27;94492.47;4366159;32;20181;-63
2023/09/21 03:51:42;;;;;;;0.33;0.33;;;;;;;17.80;94.87;94488.00;4378378;32;20188;-63
2023/09/21 03:54:08;;;;;;;0.43;0.43;;;;;;;17.80;94.59;94487.22;4378607;32;20256;-63
2023/09/21 03:56:36;;;;;;;0.70;0.70;;;;;;;17.82;93.94;94469.63;4364833;32;20192;-63
2023/09/21 03:59:01;;;;;;;1.90;0.83;;;;;;;17.79;93.91;94473.03;4372313;32;20193;-63
2023/09/21 04:01:29;;;;;;;0.50;0.50;;;;;;;17.79;94.11;94473.03;4372036;32;20198;-63
2023/09/21 04:03:54;;;;;;;0.60;0.60;;;;;;;17.93;93.69;94464.41;4364491;32;20193;-63
2023/09/21 04:06:20;;;;;;;0.83;0.83;;;;;;;17.79;94.39;94458.84;4377000;32;20204;-64
2023/09/21 04:08:45;;;;;;;0.50;0.50;;;;;;;17.82;93.58;94453.53;4379274;32;20282;-64
2023/09/21 04:11:10;;;;;;;0.47;0.47;;;;;;;17.83;93.76;94444.34;4376169;32;20196;-64
2023/09/21 04:13:36;;;;;;;0.80;0.80;;;;;;;17.94;93.61;94451.75;4364251;32;20219;-64
2023/09/21 04:16:05;;;;;;;0.87;0.87;;;;;;;17.99;93.39;94452.25;4377574;32;20203;-64
2023/09/21 04:18:31;;;;;;;0.53;0.53;;;;;;;17.69;93.00;94456.75;4378225;32;20244;-64
2023/09/21 04:20:56;;;;;;;0.73;0.73;;;;;;;17.54;94.25;94447.66;4377863;32;20242;-64
2023/09/21 04:23:24;;;;;;;0.60;0.60;;;;;;;17.62;94.07;94452.03;4364006;32;20180;-63
2023/09/21 04:25:49;;;;;;;0.63;0.63;;;;;;;17.73;93.38;94455.66;4377802;32;20185;-63
2023/09/21 04:28:15;;;;;;;1.10;1.00;;;;;;;17.83;93.52;94455.06;4366029;32;20189;-64
2023/09/21 04:30:40;;;;;;;1.07;1.07;;;;;;;17.76;92.79;94454.19;4377582;32;20180;-64
2023/09/21 04:33:06;;;;;;;0.73;0.63;;;;;;;17.68;92.65;94450.59;4363854;32;20207;-64
2023/09/21 04:35:31;;;;;;;0.90;0.90;;;;;;;17.82;93.37;94448.16;4378171;32;20193;-64
2023/09/21 04:37:58;;;;;;;0.40;0.40;;;;;;;17.65;94.06;94447.88;4364089;32;20212;-63
2023/09/21 04:40:25;;;;;;;1.73;0.97;;;;;;;17.62;93.45;94449.34;4377920;32;20188;-63
2023/09/21 04:42:51;;;;;;;0.50;0.50;;;;;;;17.66;93.92;94447.53;4377769;32;20181;-63
2023/09/21 04:45:18;;;;;;;3.67;1.43;;;;;;;17.75;92.80;94440.00;4365746;32;20232;-64
2023/09/21 04:47:49;;;;;;;1.00;0.90;;;;;;;17.81;92.95;94441.25;4364260;32;20230;-63
2023/09/21 04:50:16;;;;;;;2.00;0.67;;;;;;;17.71;92.27;94446.44;4363999;32;20188;-63
2023/09/21 04:52:43;;;;;;;0.70;0.70;;;;;;;17.66;92.38;94449.44;4377030;32;20188;-63
2023/09/21 04:55:09;;;;;;;3.23;1.47;;;;;;;17.64;92.19;94443.63;4361752;32;23020;-64
2023/09/21 04:57:37;;;;;;;39.53;1.43;;;;;;;17.72;92.64;94453.34;4377530;32;20238;-64
2023/09/21 05:00:07;;;;;;;0.40;0.40;;;;;;;17.65;91.98;94456.72;4385422;32;20257;-63
2023/09/21 05:02:33;;;;;;;5.17;1.27;;;;;;;17.41;91.07;94454.34;4390667;32;20177;-64
2023/09/21 05:04:59;;;;;;;1.03;0.93;;;;;;;17.49;93.29;94447.97;4372781;32;20191;-64
2023/09/21 05:07:25;;;;;;;0.63;0.63;;;;;;;17.44;92.67;94454.44;4381302;32;20230;-63
2023/09/21 05:09:51;;;;;;;2.53;1.30;;;;;;;17.46;92.16;94440.62;4367629;32;20196;-64
2023/09/21 05:12:18;;;;;;;1.60;1.13;;;;;;;17.47;91.95;94442.97;4379941;32;20211;-63
2023/09/21 05:14:45;;;;;;;0.97;0.97;;;;;;;17.37;92.10;94443.56;4363311;32;20238;-64
2023/09/21 05:17:10;;;;;;;0.77;0.77;;;;;;;17.52;92.34;94439.97;4376107;32;20227;-63
2023/09/21 05:19:36;;;;;;;2.47;1.37;;;;;;;17.64;92.12;94438.25;4373598;32;20204;-63
2023/09/21 05:22:01;;;;;;;1.60;0.77;;;;;;;17.64;91.65;94441.75;4369449;32;20193;-63
2023/09/21 05:24:27;;;;;;;1.33;1.03;;;;;;;17.57;92.42;94436.22;4370261;32;20184;-63
2023/09/21 05:26:53;;;;;;;0.67;0.63;;;;;;;17.65;92.75;94437.94;4366819;32;20195;-63
2023/09/21 05:29:20;;;;;;;0.67;0.67;;;;;;;17.70;92.05;94439.50;4384611;32;20202;-63
2023/09/21 05:31:45;;;;;;;1.40;0.87;;;;;;;17.51;90.89;94434.97;4386753;32;20192;-63
2023/09/21 05:34:11;;;;;;;0.60;0.60;;;;;;;17.74;92.19;94435.75;4364893;32;20199;-63
2023/09/21 05:36:36;;;;;;;2.70;1.03;;;;;;;17.75;92.77;94431.94;4376914;32;20203;-62
2023/09/21 05:39:03;;;;;;;1.00;1.00;;;;;;;17.84;91.61;94435.16;4372274;32;20215;-63
2023/09/21 05:41:31;;;;;;;0.73;0.73;;;;;;;17.80;91.44;94433.56;4363060;32;20216;-62
2023/09/21 05:43:56;;;;;;;1.23;1.23;;;;;;;17.87;91.50;94439.03;4378407;32;20206;-63
2023/09/21 05:46:22;;;;;;;0.80;0.80;;;;;;;17.81;90.41;94435.88;4377097;32;20193;-63
2023/09/21 05:48:47;;;;;;;0.67;0.67;;;;;;;17.97;90.47;94437.63;4364765;32;20200;-63
2023/09/21 05:51:12;;;;;;;1.50;0.83;;;;;;;17.87;90.26;94428.31;4362750;32;20203;-63
2023/09/21 05:53:37;;;;;;;1.30;1.30;;;;;;;17.84;90.64;94429.78;4376332;32;20252;-63
2023/09/21 05:56:04;;;;;;;0.60;0.60;;;;;;;17.93;90.61;94432.19;4370471;32;20260;-63
2023/09/21 05:58:30;;;;;;;0.97;0.97;;;;;;;17.94;89.56;94436.44;4376478;32;20200;-63
2023/09/21 06:00:55;;;;;;;0.93;0.93;;;;;;;18.00;90.41;94426.94;4376592;32;20238;-64
2023/09/21 06:03:21;;;;;;;1.27;1.27;;;;;;;18.02;89.93;94434.63;4372833;32;20184;-63
2023/09/21 06:05:46;;;;;;;4.53;0.90;;;;;;;17.83;90.80;94433.59;4378654;32;20204;-64
2023/09/21 06:08:12;;;;;;;0.87;0.87;;;;;;;17.89;90.53;94430.59;4376795;32;20189;-63
2023/09/21 06:10:37;;;;;;;1.33;1.13;;;;;;;17.81;90.28;94430.50;4376855;32;20181;-64
2023/09/21 06:13:07;;;;;;;0.80;0.80;;;;;;;17.81;89.61;94433.19;4367049;32;20199;-64
2023/09/21 06:15:32;;;;;;;0.40;0.40;;;;;;;17.88;90.64;94435.19;4372326;32;20264;-63
2023/09/21 06:17:58;;;;;;;0.70;0.70;;;;;;;17.73;88.66;94431.53;4374563;32;20197;-64
2023/09/21 06:20:23;;;;;;;1.63;1.30;;;;;;;17.71;90.40;94428.41;4376154;32;20208;-64
2023/09/21 06:22:49;;;;;;;0.60;0.60;;;;;;;17.73;89.70;94423.47;4364857;32;20220;-64
2023/09/21 06:25:14;;;;;;;0.83;0.83;;;;;;;17.80;90.34;94423.59;4352525;32;20201;-63
2023/09/21 06:27:41;;;;;;;0.90;0.90;;;;;;;17.64;90.27;94427.53;4362862;32;20256;-64
2023/09/21 06:30:07;;;;;;;5.80;2.07;;;;;;;17.87;90.34;94424.84;4376175;32;20212;-63
2023/09/21 06:32:32;;;;;;;1.13;1.13;;;;;;;17.95;89.64;94426.47;4362089;32;20248;-64
2023/09/21 06:34:59;;;;;;;1.07;1.07;;;;;;;18.00;87.98;94410.84;4374951;32;20220;-63
2023/09/21 06:37:24;;;;;;;0.60;0.60;;;;;;;18.01;89.17;94406.25;4376241;32;20223;-64
2023/09/21 06:39:50;;;;;;;1.47;0.50;;;;;;;18.04;88.74;94402.84;4374540;32;20208;-62
2023/09/21 06:42:15;;;;;;;4.67;1.67;;;;;;;18.08;88.26;94406.34;4376288;32;20193;-63
2023/09/21 06:44:41;;;;;;;0.70;0.70;;;;;;;18.08;89.01;94401.72;4374892;32;20202;-64
2023/09/21 06:47:07;;;;;;;1.37;1.33;;;;;;;18.14;89.68;94394.91;4376524;32;20210;-64
2023/09/21 06:49:35;;;;;;;0.40;0.40;;;;;;;18.13;89.20;94403.34;4373016;32;20223;-63
2023/09/21 06:52:01;;;;;;;0.50;0.50;;;;;;;18.06;88.21;94403.25;4384830;32;20215;-65
2023/09/21 06:54:28;;;;;;;2.57;0.90;;;;;;;18.46;92.37;94398.03;4381720;32;20193;-64
2023/09/21 06:56:54;;;;;;;0.97;0.80;;;;;;;18.62;91.53;94394.38;4387420;32;20237;-65
2023/09/21 06:59:19;;;;;;;0.60;0.60;;;;;;;18.83;90.52;94390.00;4371762;32;20189;-64
2023/09/21 07:01:45;;;;;;;1.27;1.27;;;;;;;19.06;90.23;94387.16;4369242;32;20230;-65
2023/09/21 07:04:10;;;;;;;1.10;0.83;;;;;;;19.35;89.40;94382.81;4384274;32;20247;-65
2023/09/21 07:06:35;;;;;;;0.47;0.43;;;;;;;19.48;86.75;94383.31;4386003;32;20297;-64
2023/09/21 07:09:02;;;;;;;0.40;0.40;;;;;;;19.47;85.51;94387.91;4364606;32;20244;-65
2023/09/21 07:11:28;;;;;;;0.43;0.43;;;;;;;19.51;84.98;94387.97;4384227;32;20215;-65
2023/09/21 07:13:54;;;;;;;0.40;0.40;;;;;;;19.47;83.85;94387.12;4386728;32;20184;-64
2023/09/21 07:16:20;;;;;;;0.60;0.60;;;;;;;19.53;83.78;94380.31;4375203;32;20204;-64
2023/09/21 07:18:47;;;;;;;0.90;0.70;;;;;;;19.64;83.91;94381.13;4366412;32;20203;-65
2023/09/21 07:21:13;;;;;;;0.60;0.60;;;;;;;19.66;83.87;94386.16;4372026;32;20203;-65
2023/09/21 07:23:39;;;;;;;0.93;0.93;;;;;;;19.84;84.25;94378.97;4379640;32;20252;-65
2023/09/21 07:26:05;;;;;;;1.67;1.57;;;;;;;19.90;82.63;94380.94;4376618;32;20180;-65
2023/09/21 07:28:30;;;;;;;0.60;0.60;;;;;;;19.92;82.14;94369.78;4381350;32;20224;-65
2023/09/21 07:30:55;;;;;;;0.53;0.53;;;;;;;19.93;82.32;94376.72;4383413;32;20258;-65
2023/09/21 07:33:21;;;;;;;0.60;0.60;;;;;;;19.92;82.03;94369.03;4376436;32;20193;-64
2023/09/21 07:35:51;;;;;;;0.77;0.77;;;;;;;19.88;80.61;94369.78;4382911;32;20204;-65
2023/09/21 07:38:19;;;;;;;0.40;0.40;;;;;;;19.82;81.98;94368.56;4386551;32;20286;-65
2023/09/21 07:40:44;;;;;;;0.80;0.80;;;;;;;19.97;82.01;94363.25;4386877;32;20193;-65
2023/09/21 07:43:10;;;;;;;0.83;0.83;;;;;;;19.83;79.98;94361.28;4384484;32;20242;-65
2023/09/21 07:45:36;;;;;;;0.53;0.53;;;;;;;19.99;82.16;94359.06;4360470;32;20239;-64
2023/09/21 07:48:01;;;;;;;1.10;0.73;;;;;;;20.07;82.10;94365.25;4375169;32;20197;-64
2023/09/21 07:50:29;;;;;;;0.83;0.83;;;;;;;20.09;80.44;94362.97;4380179;32;20249;-64
2023/09/21 07:52:56;;;;;;;1.17;1.07;;;;;;;20.16;81.72;94363.75;4379046;32;20252;-64
2023/09/21 07:55:22;;;;;;;1.70;1.17;;;;;;;20.17;81.07;94370.69;4366102;32;20235;-64
2023/09/21 07:57:48;;;;;;;0.63;0.63;;;;;;;20.19;80.62;94368.37;4381977;32;20181;-63
2023/09/21 08:00:14;;;;;;;1.17;0.73;;;;;;;20.25;81.16;94366.88;4366871;32;20197;-64
2023/09/21 08:02:40;;;;;;;0.57;0.57;;;;;;;20.36;80.24;94366.94;4363796;32;20346;-64
2023/09/21 08:05:06;;;;;;;0.20;0.20;;;;;;;20.33;79.42;94370.38;4376007;32;20235;-63
2023/09/21 08:07:33;;;;;;;0.67;0.67;;;;;;;20.38;79.74;94361.94;4377882;32;20231;-64
2023/09/21 08:09:59;;;;;;;0.80;0.80;;;;;;;20.45;78.78;94359.28;4374325;32;20194;-64
2023/09/21 08:12:25;;;;;;;0.87;0.87;;;;;;;20.35;74.97;94365.41;4377596;32;20193;-64
2023/09/21 08:14:51;;;;;;;0.73;0.73;;;;;;;20.31;76.21;94370.00;4359455;32;20278;-63
2023/09/21 08:17:21;;;;;;;1.50;0.93;;;;;;;20.38;76.99;94369.25;4345253;32;20210;-64
2023/09/21 08:19:47;;;;;;;0.70;0.70;;;;;;;20.42;78.46;94370.81;4369361;32;20205;-65
2023/09/21 08:22:14;;;;;;;1.23;1.03;;;;;;;20.48;76.42;94363.94;4376167;32;20185;-64
2023/09/21 08:24:41;;;;;;;0.40;0.40;;;;;;;20.36;75.29;94364.25;4354642;32;20292;-64
2023/09/21 08:27:12;;;;;;;0.60;0.60;;;;;;;20.42;77.01;94365.44;4368317;32;20196;-64
2023/09/21 08:29:41;;;;;;;0.50;0.50;;;;;;;20.53;77.00;94360.87;4370581;32;20196;-63
2023/09/21 08:32:06;;;;;;;0.80;0.80;;;;;;;20.52;76.36;94364.72;4338505;32;20232;-63
2023/09/21 08:34:33;;;;;;;0.30;0.30;;;;;;;20.47;72.45;94365.09;4342040;32;20244;-64
2023/09/21 08:37:01;;;;;;;0.93;0.93;;;;;;;20.55;72.88;94363.97;4368754;32;20201;-64
2023/09/21 08:39:27;;;;;;;0.63;0.63;;;;;;;20.54;74.61;94362.41;4374852;32;20207;-64
2023/09/21 08:41:54;;;;;;;0.20;0.20;;;;;;;20.58;72.52;94363.19;4376567;32;20212;-64
2023/09/21 08:44:20;;;;;;;1.90;1.70;;;;;;;20.41;71.97;94358.50;4364542;32;20197;-63
2023/09/21 08:46:48;;;;;;;1.00;0.93;;;;;;;20.34;73.19;94368.47;4377867;32;20206;-64
2023/09/21 08:49:15;;;;;;;1.77;0.90;;;;;;;20.45;76.33;94359.28;4377115;32;20185;-65
2023/09/21 08:51:42;;;;;;;0.83;0.83;;;;;;;20.45;75.06;94364.69;4352267;32;20343;-66
2023/09/21 08:54:15;;;;;;;0.53;0.53;;;;;;;20.51;75.13;94348.94;4347331;32;20223;-64
2023/09/21 08:56:43;;;;;;;0.90;0.90;;;;;;;20.46;73.32;94351.97;4364389;32;20208;-64
2023/09/21 08:59:10;;;;;;;0.47;0.47;;;;;;;20.42;73.81;94343.88;4346859;32;20193;-63
2023/09/21 09:01:37;;;;;;;0.80;0.80;;;;;;;20.46;73.29;94344.66;4338414;32;20276;-64
2023/09/21 09:04:04;;;;;;;0.77;0.77;;;;;;;20.41;74.90;94336.19;4324231;32;20318;-64
2023/09/21 09:06:31;;;;;;;0.83;0.83;;;;;;;20.43;73.64;94328.50;4352664;32;20200;-64
2023/09/21 09:08:59;;;;;;;0.83;0.83;;;;;;;20.53;71.57;94331.22;4373996;32;20286;-65
2023/09/21 09:11:44;;;;;;;1.03;1.03;;;;;;;20.52;72.54;94331.59;4360018;32;20213;-63
2023/09/21 09:14:19;;;;;;;1.03;1.03;;;;;;;20.56;73.01;94317.00;4369799;32;20279;-63
2023/09/21 09:16:46;;;;;;;1.40;1.30;;;;;;;20.56;73.06;94318.91;4319396;32;20251;-63
2023/09/21 09:19:13;;;;;;;1.10;1.10;;;;;;;20.56;73.33;94311.59;4335782;32;20264;-63
2023/09/21 09:21:41;;;;;;;1.60;0.97;;;;;;;20.54;73.38;94308.53;4353887;32;20204;-63
2023/09/21 09:24:09;;;;;;;1.77;1.73;;;;;;;20.64;72.16;94312.38;4375193;32;20250;-64
2023/09/21 09:26:39;;;;;;;1.77;1.53;;;;;;;20.65;71.77;94305.06;4332070;32;20212;-64
2023/09/21 09:29:12;;;;;;;0.70;0.70;;;;;;;20.70;70.79;94304.69;4368802;32;20189;-63
2023/09/21 09:31:47;;;;;;;1.37;1.27;;;;;;;20.92;69.16;94298.19;4352214;32;20211;-63
2023/09/21 09:34:17;;;;;;;2.50;2.10;;;;;;;20.90;70.17;94297.78;4295547;32;20308;-63
2023/09/21 09:36:46;;;;;;;0.60;0.60;;;;;;;20.92;70.87;94290.09;4350817;32;20201;-63
2023/09/21 09:39:15;;;;;;;0.83;0.83;;;;;;;20.98;70.53;94293.97;4354367;32;20236;-63
2023/09/21 09:41:41;;;;;;;0.43;0.43;;;;;;;20.99;70.10;94284.69;4345604;32;20200;-63
2023/09/21 09:44:10;;;;;;;0.43;0.43;;;;;;;21.19;68.67;94287.78;4334187;32;20204;-64
2023/09/21 09:46:43;;;;;;;0.60;0.60;;;;;;;21.47;67.42;94279.69;4362640;32;20213;-63
2023/09/21 09:49:12;;;;;;;0.83;0.80;;;;;;;21.36;68.38;94283.56;4350000;32;20201;-63
2023/09/21 09:51:47;;;;;;;0.43;0.43;;;;;;;21.34;68.83;94285.88;4361034;32;20193;-64
2023/09/21 09:54:13;;;;;;;0.33;0.33;;;;;;;21.36;68.99;94281.62;4342701;32;20215;-63
2023/09/21 09:56:41;;;;;;;4.63;0.63;;;;;;;21.39;69.15;94280.88;4357134;32;20307;-64
2023/09/21 09:59:14;;;;;;;0.60;0.60;;;;;;;21.42;69.28;94279.28;4354992;32;20231;-63
2023/09/21 10:01:41;;;;;;;0.73;0.37;;;;;;;21.42;69.27;94279.28;4326881;32;20291;-64
2023/09/21 10:04:08;;;;;;;0.73;0.73;;;;;;;21.46;68.69;94271.97;4359361;32;20244;-64
2023/09/21 10:06:36;;;;;;;0.50;0.50;;;;;;;21.48;68.71;94272.34;4362217;32;20220;-64
2023/09/21 10:09:09;;;;;;;0.40;0.40;;;;;;;21.59;67.01;94270.44;4360034;32;20197;-64
2023/09/21 10:11:44;;;;;;;0.47;0.40;;;;;;;21.64;67.05;94270.00;4357740;32;20212;-64
2023/09/21 10:14:12;;;;;;;0.87;0.73;;;;;;;21.70;66.54;94267.69;4297782;32;20240;-64
2023/09/21 10:16:39;;;;;;;0.37;0.37;;;;;;;21.70;67.69;94268.47;4326734;32;20197;-65
2023/09/21 10:19:06;;;;;;;0.60;0.40;;;;;;;21.76;66.73;94266.12;4305926;32;20190;-63
2023/09/21 10:21:35;;;;;;;0.60;0.60;;;;;;;21.69;65.79;94258.81;4347887;32;20207;-65
2023/09/21 10:24:02;;;;;;;2.10;0.50;;;;;;;21.68;66.26;94259.97;4344433;32;20189;-65
2023/09/21 10:26:30;;;;;;;2.07;0.70;;;;;;;21.64;68.29;94251.09;4360608;32;20248;-64
2023/09/21 10:28:56;;;;;;;0.30;0.30;;;;;;;21.65;67.52;94252.66;4360531;32;20204;-64
2023/09/21 10:31:24;;;;;;;0.40;0.40;;;;;;;21.71;67.61;94243.00;4360297;32;20204;-65
2023/09/21 10:33:52;;;;;;;0.27;0.27;;;;;;;21.72;66.81;94243.78;4360669;32;20204;-63
2023/09/21 10:36:22;;;;;;;1.70;0.60;;;;;;;21.77;65.43;94240.66;4371023;32;20213;-64
2023/09/21 10:39:26;;;;;;;0.40;0.40;;;;;;;22.10;63.97;94237.47;4352654;32;20342;-64
2023/09/21 10:42:16;;;;;;;0.57;0.47;;;;;;;22.20;62.28;94235.91;4348803;32;20212;-63
2023/09/21 10:45:03;;;;;;;0.53;0.53;;;;;;;22.15;62.81;94222.78;4360008;32;20245;-64
2023/09/21 10:47:49;;;;;;;0.50;0.50;;;;;;;22.15;63.37;94217.38;4352664;32;20197;-64
2023/09/21 10:50:24;;;;;;;0.47;0.47;;;;;;;22.22;63.13;94214.66;4325402;32;20232;-64
2023/09/21 10:52:55;;;;;;;0.20;0.20;;;;;;;22.21;63.22;94213.88;4346992;32;20189;-64
2023/09/21 10:55:22;;;;;;;0.20;0.20;;;;;;;22.27;62.47;94208.81;4354486;32;20185;-64
2023/09/21 10:57:49;;;;;;;0.37;0.37;;;;;;;22.35;61.53;94210.31;4370431;32;20196;-65
2023/09/21 11:00:17;;;;;;;0.23;0.23;;;;;;;22.32;61.50;94210.34;4370812;32;20237;-64
2023/09/21 11:02:46;;;;;;;0.43;0.43;;;;;;;22.28;61.77;94205.72;4364325;32;20188;-64
2023/09/21 11:05:34;;;;;;;0.10;0.10;;;;;;;22.38;61.01;94203.34;4362636;32;20192;-64
2023/09/21 11:08:02;;;;;;;0.20;0.20;;;;;;;22.38;61.62;94201.44;4349992;32;20216;-64
2023/09/21 11:10:31;;;;;;;0.20;0.20;;;;;;;22.43;59.36;94189.44;4350478;32;20195;-64
2023/09/21 11:12:57;;;;;;;0.37;0.37;;;;;;;22.53;58.31;94189.34;4320740;32;20270;-64
2023/09/21 11:15:22;;;;;;;1.93;1.83;;;;;;;22.60;58.88;94183.13;4357399;32;20196;-63
2023/09/21 11:17:48;;;;;;;0.63;0.63;;;;;;;22.49;59.92;94182.41;4362443;32;20282;-63
2023/09/21 11:20:19;;;;;;;0.30;0.30;;;;;;;22.40;61.64;94177.47;4364996;32;20245;-64
2023/09/21 11:22:51;;;;;;;0.30;0.30;;;;;;;22.37;60.57;94170.16;4361612;32;20185;-64
2023/09/21 11:25:20;;;;;;;0.20;0.20;;;;;;;22.36;60.91;94179.44;4367010;32;20184;-63
2023/09/21 11:27:47;;;;;;;0.57;0.57;;;;;;;22.32;61.44;94172.50;4363570;32;20242;-64
2023/09/21 11:30:14;;;;;;;0.20;0.20;;;;;;;22.29;60.01;94168.66;4365018;32;20204;-63
2023/09/21 11:32:46;;;;;;;0.30;0.30;;;;;;;22.37;56.30;94159.34;4365246;32;26440;-64
2023/09/21 11:35:17;;;;;;;0.20;0.00;;;;;;;22.37;56.62;94153.16;4355307;32;20264;-63
2023/09/21 11:37:46;;;;;;;0.80;0.80;;;;;;;22.43;55.40;94146.19;4359522;32;20201;-64